createdAt,value
2019-03-03T00:01:32.092Z,103.02
2019-03-03T00:04:02.348Z,116.12
2019-03-03T00:06:32.635Z,110.80
2019-03-03T00:09:02.994Z,109.52
2019-03-03T00:11:34.708Z,112.80
2019-03-03T00:14:04.957Z,105.10
2019-03-03T00:16:35.256Z,97.62
2019-03-03T00:19:05.521Z,95.95
2019-03-03T00:21:35.896Z,96.70
2019-03-03T00:24:06.151Z,91.35
2019-03-03T00:26:36.326Z,92.85
2019-03-03T00:29:06.585Z,100.00
2019-03-03T00:31:38.589Z,107.35
2019-03-03T00:34:08.869Z,95.12
2019-03-03T00:36:58.913Z,100.00
2019-03-03T00:39:36.704Z,105.43
2019-03-03T00:42:17.480Z,101.10
2019-03-03T00:44:55.379Z,106.55
2019-03-03T00:47:29.931Z,105.15
2019-03-03T00:50:01.749Z,105.10
2019-03-03T00:52:36.557Z,102.60
2019-03-03T00:55:14.882Z,99.83
2019-03-03T00:57:46.635Z,94.58
2019-03-03T01:00:30.155Z,92.25
2019-03-03T01:03:07.689Z,96.75
2019-03-03T01:05:48.169Z,99.28
2019-03-03T01:08:19.965Z,102.53
2019-03-03T01:10:57.792Z,107.52
2019-03-03T01:13:44.832Z,98.78
2019-03-03T01:16:19.607Z,102.58
2019-03-03T01:18:54.149Z,103.25
2019-03-03T01:21:25.983Z,99.60
2019-03-03T01:23:57.762Z,95.12
2019-03-03T01:26:28.017Z,104.83
2019-03-03T01:28:58.193Z,100.53
2019-03-03T01:31:28.480Z,97.53
2019-03-03T01:33:58.771Z,99.07
2019-03-03T01:36:29.113Z,91.20
2019-03-03T01:38:59.303Z,90.10
2019-03-03T01:41:29.541Z,92.27
2019-03-03T01:43:59.731Z,92.78
2019-03-03T01:46:30.597Z,91.00
2019-03-03T01:49:01.980Z,88.58
2019-03-03T01:51:32.215Z,87.90
2019-03-03T01:54:02.409Z,84.30
2019-03-03T01:56:32.657Z,86.37
2019-03-03T01:59:02.857Z,95.12
2019-03-03T02:01:33.705Z,93.03
2019-03-03T02:04:03.980Z,97.35
2019-03-03T02:06:34.213Z,81.87
2019-03-03T02:09:06.856Z,88.85
2019-03-03T02:11:37.428Z,85.30
2019-03-03T02:14:07.731Z,87.00
2019-03-03T02:16:37.985Z,96.47
2019-03-03T02:19:08.162Z,91.30
2019-03-03T02:21:38.391Z,91.85
2019-03-03T02:24:08.585Z,91.47
2019-03-03T02:26:38.843Z,78.57
2019-03-03T02:29:09.066Z,84.15
2019-03-03T02:31:39.299Z,74.67
2019-03-03T02:34:09.480Z,79.03
2019-03-03T02:36:39.724Z,85.25
2019-03-03T02:39:14.939Z,80.67
2019-03-03T02:41:45.307Z,83.42
2019-03-03T02:44:16.697Z,83.37
2019-03-03T02:46:46.977Z,88.22
2019-03-03T02:49:17.174Z,94.35
2019-03-03T02:51:47.444Z,83.25
2019-03-03T02:54:17.621Z,82.12
2019-03-03T02:56:47.885Z,83.75
2019-03-03T02:59:18.070Z,90.20
2019-03-03T03:01:49.924Z,80.35
2019-03-03T03:04:20.118Z,89.35
2019-03-03T03:06:52.003Z,93.22
2019-03-03T03:09:26.847Z,86.28
2019-03-03T03:12:01.798Z,102.38
2019-03-03T03:14:33.614Z,167.40
2019-03-03T03:17:14.490Z,98.07
2019-03-03T03:19:52.215Z,95.55
2019-03-03T03:22:40.536Z,88.30
2019-03-03T03:25:24.294Z,107.27
2019-03-03T03:28:07.837Z,96.78
2019-03-03T03:30:39.588Z,97.17
2019-03-03T03:33:11.408Z,106.83
2019-03-03T03:35:43.152Z,95.90
2019-03-03T03:38:17.701Z,103.30
2019-03-03T03:40:49.451Z,103.27
2019-03-03T03:43:30.098Z,101.72
2019-03-03T03:46:19.921Z,106.87
2019-03-03T03:48:53.330Z,104.97
2019-03-03T03:51:40.414Z,110.08
2019-03-03T03:54:18.165Z,122.42
2019-03-03T03:56:49.927Z,115.85
2019-03-03T03:59:24.483Z,124.35
2019-03-03T04:01:56.258Z,117.75
2019-03-03T04:04:28.079Z,116.93
2019-03-03T04:07:05.738Z,116.47
2019-03-03T04:09:37.558Z,114.70
2019-03-03T04:12:18.613Z,125.62
2019-03-03T04:14:53.439Z,145.05
2019-03-03T04:17:25.251Z,131.57
2019-03-03T04:20:00.367Z,133.40
2019-03-03T04:22:35.527Z,120.62
2019-03-03T04:25:10.446Z,115.35
2019-03-03T04:27:42.201Z,132.15
2019-03-03T04:30:14.005Z,119.25
2019-03-03T04:32:52.003Z,114.22
2019-03-03T04:35:26.674Z,128.60
2019-03-03T04:37:58.431Z,128.82
2019-03-03T04:40:39.163Z,113.10
2019-03-03T04:43:17.150Z,120.45
2019-03-03T04:45:54.633Z,113.75
2019-03-03T04:48:30.441Z,125.12
2019-03-03T04:51:05.389Z,128.23
2019-03-03T04:53:40.034Z,132.75
2019-03-03T04:56:30.189Z,130.63
2019-03-03T04:59:07.981Z,119.40
2019-03-03T05:01:51.932Z,125.55
2019-03-03T05:04:23.903Z,115.03
2019-03-03T05:07:07.629Z,119.50
2019-03-03T05:09:42.104Z,121.67
2019-03-03T05:12:34.358Z,115.97
2019-03-03T05:15:20.670Z,128.35
2019-03-03T05:17:52.486Z,120.33
2019-03-03T05:20:22.694Z,114.90
2019-03-03T05:22:52.973Z,130.22
2019-03-03T05:25:23.252Z,130.05
2019-03-03T05:27:53.438Z,129.18
2019-03-03T05:30:23.608Z,123.22
2019-03-03T05:32:53.866Z,117.75
2019-03-03T05:35:24.051Z,122.17
2019-03-03T05:37:54.291Z,108.87
2019-03-03T05:40:24.600Z,123.58
2019-03-03T05:42:54.899Z,118.95
2019-03-03T05:45:25.128Z,110.03
2019-03-03T05:47:55.390Z,121.72
2019-03-03T05:50:25.574Z,113.55
2019-03-03T05:52:55.885Z,114.30
2019-03-03T05:55:26.135Z,123.65
2019-03-03T05:57:56.392Z,113.92
2019-03-03T06:00:26.580Z,119.15
2019-03-03T06:02:56.867Z,109.12
2019-03-03T06:05:27.048Z,117.15
2019-03-03T06:07:57.309Z,117.15
2019-03-03T06:10:27.542Z,124.97
2019-03-03T06:12:57.803Z,138.20
2019-03-03T06:15:28.029Z,185.90
2019-03-03T06:17:58.281Z,127.72
2019-03-03T06:20:28.538Z,117.77
2019-03-03T06:22:58.773Z,108.00
2019-03-03T06:25:29.018Z,112.90
2019-03-03T06:27:59.253Z,111.25
2019-03-03T06:30:29.578Z,111.28
2019-03-03T06:32:59.884Z,108.85
2019-03-03T06:35:31.229Z,115.00
2019-03-03T06:38:01.471Z,114.77
2019-03-03T06:40:31.743Z,116.12
2019-03-03T06:43:02.045Z,116.03
2019-03-03T06:45:32.294Z,133.78
2019-03-03T06:48:02.534Z,140.00
2019-03-03T06:50:32.781Z,146.98
2019-03-03T06:53:03.037Z,138.52
2019-03-03T06:55:33.261Z,122.07
2019-03-03T06:58:03.620Z,107.10
2019-03-03T07:00:33.856Z,109.95
2019-03-03T07:03:04.152Z,125.75
2019-03-03T07:05:34.496Z,127.62
2019-03-03T07:08:04.741Z,103.12
2019-03-03T07:10:35.039Z,105.75
2019-03-03T07:13:05.294Z,110.03
2019-03-03T07:15:35.574Z,100.87
2019-03-03T07:18:05.824Z,99.97
2019-03-03T07:20:36.057Z,108.10
2019-03-03T07:23:06.305Z,111.03
2019-03-03T07:25:36.577Z,106.75
2019-03-03T07:28:08.021Z,102.70
2019-03-03T07:30:38.266Z,99.28
2019-03-03T07:33:10.082Z,108.78
2019-03-03T07:35:40.414Z,100.92
2019-03-03T07:38:10.648Z,94.90
2019-03-03T07:40:40.879Z,92.22
2019-03-03T07:43:11.105Z,94.85
2019-03-03T07:45:42.643Z,100.47
2019-03-03T07:48:12.874Z,102.92
2019-03-03T07:50:43.108Z,96.72
2019-03-03T07:53:13.365Z,108.27
2019-03-03T07:55:43.603Z,102.47
2019-03-03T07:58:13.835Z,96.65
2019-03-03T08:00:44.072Z,102.58
2019-03-03T08:03:14.364Z,99.85
2019-03-03T08:05:44.646Z,99.80
2019-03-03T08:08:15.308Z,103.58
2019-03-03T08:10:45.507Z,196.55
2019-03-03T08:13:15.872Z,113.70
2019-03-03T08:15:46.092Z,114.40
2019-03-03T08:18:16.473Z,113.10
2019-03-03T08:20:46.770Z,114.47
2019-03-03T08:23:17.146Z,104.40
2019-03-03T08:25:48.665Z,123.55
2019-03-03T08:28:18.903Z,115.88
2019-03-03T08:30:49.226Z,127.47
2019-03-03T08:33:19.467Z,126.62
2019-03-03T08:35:49.674Z,143.65
2019-03-03T08:38:19.938Z,143.02
2019-03-03T08:40:50.139Z,203.00
2019-03-03T08:43:33.599Z,175.50
2019-03-03T08:46:05.382Z,148.25
2019-03-03T08:48:41.526Z,145.53
2019-03-03T08:51:14.494Z,141.37
2019-03-03T08:53:48.777Z,140.73
2019-03-03T08:56:20.549Z,146.77
2019-03-03T08:58:58.366Z,139.40
2019-03-03T09:01:30.125Z,143.05
2019-03-03T09:04:11.204Z,138.12
2019-03-03T09:06:58.244Z,133.60
2019-03-03T09:09:32.549Z,146.60
2019-03-03T09:12:20.580Z,142.13
2019-03-03T09:15:08.638Z,139.82
2019-03-03T09:17:49.310Z,138.07
2019-03-03T09:20:27.158Z,140.32
2019-03-03T09:22:59.053Z,136.40
2019-03-03T09:25:33.863Z,133.35
2019-03-03T09:28:23.757Z,134.55
2019-03-03T09:30:55.628Z,134.27
2019-03-03T09:33:45.712Z,145.17
2019-03-03T09:36:20.250Z,146.22
2019-03-03T09:39:07.127Z,154.93
2019-03-03T09:41:46.288Z,147.00
2019-03-03T09:44:18.073Z,148.65
2019-03-03T09:46:49.923Z,150.32
2019-03-03T09:49:30.939Z,153.87
2019-03-03T09:52:19.277Z,149.18
2019-03-03T09:55:07.426Z,146.30
2019-03-03T09:57:48.446Z,150.00
2019-03-03T10:00:29.469Z,156.52
2019-03-03T10:03:01.275Z,158.75
2019-03-03T10:05:36.175Z,158.60
2019-03-03T10:08:11.085Z,178.93
2019-03-03T10:10:42.843Z,155.90
2019-03-03T10:13:14.680Z,157.12
2019-03-03T10:15:58.483Z,145.40
2019-03-03T10:18:33.092Z,151.35
2019-03-03T10:21:16.617Z,160.12
2019-03-03T10:24:00.329Z,154.20
2019-03-03T10:26:48.542Z,154.80
2019-03-03T10:29:20.361Z,159.15
2019-03-03T10:32:07.066Z,158.87
2019-03-03T10:34:47.738Z,162.10
2019-03-03T10:37:22.760Z,155.78
2019-03-03T10:39:54.570Z,154.80
2019-03-03T10:42:29.064Z,148.35
2019-03-03T10:45:17.133Z,149.75
2019-03-03T10:47:57.848Z,156.85
2019-03-03T10:50:38.952Z,152.40
2019-03-03T10:53:13.486Z,137.50
2019-03-03T10:55:51.509Z,147.05
2019-03-03T10:58:32.296Z,144.02
2019-03-03T11:01:22.155Z,151.85
2019-03-03T11:04:02.717Z,156.37
2019-03-03T11:06:37.447Z,154.38
2019-03-03T11:09:27.148Z,156.10
2019-03-03T11:12:17.444Z,145.97
2019-03-03T11:14:49.274Z,149.25
2019-03-03T11:17:24.201Z,145.45
2019-03-03T11:19:59.004Z,146.20
2019-03-03T11:22:37.838Z,153.25
2019-03-03T11:25:10.971Z,148.87
2019-03-03T11:27:42.787Z,143.87
2019-03-03T11:30:23.375Z,150.25
2019-03-03T11:32:59.301Z,143.45
2019-03-03T11:35:31.051Z,138.62
2019-03-03T11:38:08.491Z,152.32
2019-03-03T11:40:56.539Z,147.82
2019-03-03T11:43:37.155Z,150.35
2019-03-03T11:46:11.668Z,142.47
2019-03-03T11:48:43.571Z,134.85
2019-03-03T11:51:31.862Z,138.62
2019-03-03T11:54:09.715Z,144.37
2019-03-03T11:56:44.459Z,137.00
2019-03-03T11:59:16.280Z,143.25
2019-03-03T12:01:54.042Z,136.45
2019-03-03T12:04:25.854Z,136.80
2019-03-03T12:07:09.581Z,124.82
2019-03-03T12:09:41.392Z,123.28
2019-03-03T12:12:13.154Z,119.33
2019-03-03T12:14:47.815Z,126.02
2019-03-03T12:17:35.801Z,167.82
2019-03-03T12:20:24.912Z,122.58
2019-03-03T12:23:08.663Z,127.75
2019-03-03T12:25:58.875Z,119.10
2019-03-03T12:28:30.624Z,125.12
2019-03-03T12:31:02.389Z,120.20
2019-03-03T12:33:34.212Z,116.93
2019-03-03T12:36:20.936Z,107.32
2019-03-03T12:38:55.488Z,116.05
2019-03-03T12:41:42.357Z,109.42
2019-03-03T12:44:14.174Z,117.85
2019-03-03T12:46:58.129Z,114.67
2019-03-03T12:49:47.604Z,106.12
2019-03-03T12:52:35.583Z,110.90
2019-03-03T12:55:09.699Z,114.45
2019-03-03T12:57:41.477Z,113.30
2019-03-03T13:00:19.639Z,111.83
2019-03-03T13:02:51.626Z,102.30
2019-03-03T13:05:38.770Z,99.97
2019-03-03T13:08:10.528Z,92.22
2019-03-03T13:10:48.586Z,95.53
2019-03-03T13:13:23.462Z,100.45
2019-03-03T13:16:11.922Z,96.85
2019-03-03T13:18:43.676Z,89.72
2019-03-03T13:21:21.493Z,98.33
2019-03-03T13:24:09.657Z,89.37
2019-03-03T13:26:41.485Z,101.30
2019-03-03T13:29:13.258Z,104.87
2019-03-03T13:31:54.208Z,100.53
2019-03-03T13:34:28.797Z,93.25
2019-03-03T13:37:06.367Z,97.33
2019-03-03T13:39:38.120Z,91.35
2019-03-03T13:42:12.689Z,90.35
2019-03-03T13:44:42.877Z,87.60
2019-03-03T13:47:13.121Z,90.83
2019-03-03T13:49:43.288Z,94.58
2019-03-03T13:52:13.527Z,94.30
2019-03-03T13:54:43.714Z,84.80
2019-03-03T13:57:13.966Z,81.17
2019-03-03T13:59:44.175Z,79.17
2019-03-03T14:02:14.525Z,82.47
2019-03-03T14:04:44.736Z,81.20
2019-03-03T14:07:15.017Z,90.32
2019-03-03T14:09:45.204Z,81.02
2019-03-03T14:12:15.461Z,81.65
2019-03-03T14:14:45.657Z,86.75
2019-03-03T14:17:15.905Z,79.97
2019-03-03T14:19:46.104Z,74.22
2019-03-03T14:22:16.355Z,76.22
2019-03-03T14:24:46.707Z,75.37
2019-03-03T14:27:17.018Z,66.30
2019-03-03T14:29:47.255Z,72.03
2019-03-03T14:32:17.511Z,67.08
2019-03-03T14:34:47.801Z,68.07
2019-03-03T14:37:18.079Z,69.45
2019-03-03T14:39:48.335Z,65.47
2019-03-03T14:42:18.579Z,65.08
2019-03-03T14:44:48.830Z,76.80
2019-03-03T14:47:20.167Z,68.07
2019-03-03T14:49:50.404Z,71.77
2019-03-03T14:52:20.663Z,77.17
2019-03-03T14:54:50.908Z,78.07
2019-03-03T14:57:21.207Z,70.03
2019-03-03T14:59:51.444Z,71.20
2019-03-03T15:02:21.753Z,68.95
2019-03-03T15:04:52.004Z,64.87
2019-03-03T15:07:22.258Z,70.25
2019-03-03T15:10:04.450Z,68.87
2019-03-03T15:12:34.703Z,69.45
2019-03-03T15:15:07.683Z,84.77
2019-03-03T15:17:38.941Z,63.60
2019-03-03T15:20:09.190Z,60.05
2019-03-03T15:22:39.468Z,60.28
2019-03-03T15:25:11.644Z,61.37
2019-03-03T15:27:41.906Z,60.85
2019-03-03T15:30:18.835Z,58.28
2019-03-03T15:32:49.190Z,69.67
2019-03-03T15:35:19.450Z,73.20
2019-03-03T15:37:49.734Z,63.42
2019-03-03T15:40:22.528Z,68.57
2019-03-03T15:42:53.150Z,62.67
2019-03-03T15:45:29.969Z,67.12
2019-03-03T15:48:00.197Z,60.83
2019-03-03T15:50:30.464Z,57.25
2019-03-03T15:53:00.735Z,62.62
2019-03-03T15:55:32.375Z,55.98
2019-03-03T15:58:02.635Z,57.48
2019-03-03T16:00:35.121Z,62.40
2019-03-03T16:03:05.530Z,59.77
2019-03-03T16:05:36.717Z,66.87
2019-03-03T16:08:07.120Z,66.30
2019-03-03T16:10:37.593Z,63.73
2019-03-03T16:13:07.991Z,70.00
2019-03-03T16:15:38.679Z,65.03
2019-03-03T16:18:09.293Z,85.65
2019-03-03T16:20:40.039Z,76.92
2019-03-03T16:23:10.778Z,69.82
2019-03-03T16:25:41.575Z,70.12
2019-03-03T16:28:12.188Z,65.40
2019-03-03T16:30:42.900Z,74.03
2019-03-03T16:33:19.996Z,67.42
2019-03-03T16:38:18.495Z,69.77
2019-03-03T16:40:49.229Z,71.02
2019-03-03T16:43:19.851Z,66.25
2019-03-03T16:45:50.569Z,75.03
2019-03-03T16:48:21.209Z,104.25
2019-03-03T16:50:51.929Z,79.17
2019-03-03T16:53:22.646Z,150.32
2019-03-03T16:55:53.414Z,94.80
2019-03-03T16:58:24.009Z,100.95
2019-03-03T17:00:54.733Z,69.60
2019-03-03T17:03:25.358Z,76.47
2019-03-03T17:05:56.115Z,73.90
2019-03-03T17:08:26.747Z,73.12
2019-03-03T17:10:57.517Z,77.35
2019-03-03T17:13:28.177Z,74.25
2019-03-03T17:15:58.912Z,71.92
2019-03-03T17:18:29.515Z,82.35
2019-03-03T17:21:00.222Z,75.47
2019-03-03T17:23:30.959Z,88.33
2019-03-03T17:26:01.675Z,82.57
2019-03-03T17:28:32.305Z,93.27
2019-03-03T17:31:03.026Z,78.40
2019-03-03T17:33:33.667Z,81.25
2019-03-03T17:36:04.367Z,76.45
2019-03-03T17:38:36.076Z,110.30
2019-03-03T17:41:06.851Z,87.55
2019-03-03T17:43:37.672Z,83.20
2019-03-03T17:46:08.381Z,78.40
2019-03-03T17:48:39.015Z,84.25
2019-03-03T17:51:09.745Z,80.25
2019-03-03T17:53:40.434Z,78.28
2019-03-03T17:56:11.436Z,95.10
2019-03-03T17:58:42.063Z,117.37
2019-03-03T18:01:12.836Z,118.25
2019-03-03T18:03:43.588Z,95.55
2019-03-03T18:06:14.283Z,113.55
2019-03-03T18:08:44.905Z,110.30
2019-03-03T18:11:15.519Z,109.05
2019-03-03T18:13:46.295Z,101.75
2019-03-03T18:16:17.183Z,108.00
2019-03-03T18:18:47.910Z,95.12
2019-03-03T18:21:20.046Z,94.13
2019-03-03T18:23:51.661Z,101.35
2019-03-03T18:26:22.356Z,93.05
2019-03-03T18:28:52.963Z,83.65
2019-03-03T18:31:23.582Z,111.92
2019-03-03T18:33:53.966Z,89.62
2019-03-03T18:36:24.573Z,104.27
2019-03-03T18:38:55.022Z,108.30
2019-03-03T18:41:25.682Z,119.82
2019-03-03T18:43:56.080Z,112.97
2019-03-03T18:46:26.470Z,108.32
2019-03-03T18:48:56.884Z,111.90
2019-03-03T18:51:27.273Z,112.85
2019-03-03T18:53:57.611Z,103.05
2019-03-03T18:56:27.887Z,129.15
2019-03-03T18:58:58.078Z,103.20
2019-03-03T19:01:28.329Z,104.38
2019-03-03T19:03:58.846Z,109.48
2019-03-03T19:06:29.489Z,99.58
2019-03-03T19:09:00.028Z,95.90
2019-03-03T19:11:30.613Z,99.77
2019-03-03T19:14:00.861Z,96.53
2019-03-03T19:16:31.221Z,92.40
2019-03-03T19:19:01.516Z,83.62
2019-03-03T19:21:31.840Z,86.08
2019-03-03T19:24:02.231Z,91.72
2019-03-03T19:26:32.532Z,94.13
2019-03-03T19:29:02.886Z,94.92
2019-03-03T19:31:33.506Z,85.90
2019-03-03T19:34:04.134Z,85.47
2019-03-03T19:36:36.537Z,94.92
2019-03-03T19:39:07.051Z,90.90
2019-03-03T19:41:39.090Z,81.20
2019-03-03T19:44:11.247Z,90.15
2019-03-03T19:46:41.841Z,80.22
2019-03-03T19:49:12.611Z,78.10
2019-03-03T19:51:43.197Z,74.90
2019-03-03T19:54:13.945Z,76.70
2019-03-03T19:56:44.678Z,80.50
2019-03-03T19:59:15.006Z,78.87
2019-03-03T20:01:45.683Z,81.25
2019-03-03T20:04:16.172Z,77.78
2019-03-03T20:06:46.816Z,74.85
2019-03-03T20:09:18.249Z,73.10
2019-03-03T20:11:48.939Z,84.30
2019-03-03T20:14:20.816Z,76.33
2019-03-03T20:16:51.247Z,76.47
2019-03-03T20:19:21.503Z,72.58
2019-03-03T20:21:51.769Z,84.15
2019-03-03T20:24:22.032Z,83.70
2019-03-03T20:26:52.413Z,82.08
2019-03-03T20:29:22.616Z,88.45
2019-03-03T20:31:52.983Z,75.03
2019-03-03T20:34:23.179Z,81.75
2019-03-03T20:36:53.543Z,85.28
2019-03-03T20:39:23.716Z,84.87
2019-03-03T20:41:53.981Z,84.75
2019-03-03T20:44:24.382Z,84.37
2019-03-03T20:46:54.647Z,75.95
2019-03-03T20:49:24.911Z,81.08
2019-03-03T20:51:55.192Z,80.62
2019-03-03T20:54:25.455Z,78.90
2019-03-03T20:56:55.785Z,74.65
2019-03-03T20:59:26.020Z,79.62
2019-03-03T21:01:56.313Z,84.83
2019-03-03T21:04:26.677Z,74.45
2019-03-03T21:06:56.914Z,81.47
2019-03-03T21:09:27.168Z,77.00
2019-03-03T21:11:57.427Z,76.60
2019-03-03T21:14:27.664Z,82.17
2019-03-03T21:16:57.925Z,77.75
2019-03-03T21:19:28.159Z,79.47
2019-03-03T21:21:58.379Z,77.40
2019-03-03T21:24:28.601Z,70.97
2019-03-03T21:26:58.847Z,73.10
2019-03-03T21:29:30.218Z,80.05
2019-03-03T21:32:00.451Z,82.08
2019-03-03T21:34:30.611Z,82.15
2019-03-03T21:37:00.848Z,97.88
2019-03-03T21:39:31.025Z,97.17
2019-03-03T21:42:01.273Z,101.42
2019-03-03T21:44:31.464Z,100.25
2019-03-03T21:47:02.806Z,98.10
2019-03-03T21:49:34.183Z,92.20
2019-03-03T21:52:04.426Z,96.40
2019-03-03T21:54:34.605Z,102.05
2019-03-03T21:57:04.961Z,100.02
2019-03-03T21:59:35.132Z,97.92
2019-03-03T22:02:05.378Z,103.85
2019-03-03T22:04:35.648Z,99.55
2019-03-03T22:07:05.883Z,103.90
2019-03-03T22:09:36.072Z,104.03
2019-03-03T22:12:06.324Z,99.50
2019-03-03T22:14:36.506Z,102.65
2019-03-03T22:17:06.742Z,103.30
2019-03-03T22:19:36.916Z,99.70
2019-03-03T22:22:07.159Z,107.32
2019-03-03T22:24:37.336Z,104.30
2019-03-03T22:27:07.577Z,104.35
2019-03-03T22:29:37.862Z,106.45
2019-03-03T22:32:09.214Z,114.40
2019-03-03T22:34:39.400Z,109.15
2019-03-03T22:37:09.643Z,100.27
2019-03-03T22:39:39.824Z,108.20
2019-03-03T22:42:10.076Z,113.17
2019-03-03T22:44:40.252Z,107.83
2019-03-03T22:47:10.483Z,106.20
2019-03-03T22:49:40.665Z,111.92
2019-03-03T22:52:10.904Z,115.22
2019-03-03T22:54:41.075Z,109.70
2019-03-03T22:57:11.312Z,100.90
2019-03-03T22:59:41.470Z,98.72
2019-03-03T23:02:12.479Z,99.65
2019-03-03T23:04:51.514Z,111.15
2019-03-03T23:07:43.702Z,105.20
2019-03-03T23:10:39.676Z,107.92
2019-03-03T23:13:25.275Z,106.80
2019-03-03T23:16:13.382Z,100.35
2019-03-03T23:19:02.045Z,93.87
2019-03-03T23:21:35.333Z,99.13
2019-03-03T23:24:20.529Z,99.55
2019-03-03T23:26:50.687Z,94.70
2019-03-03T23:29:20.939Z,106.22
2019-03-03T23:31:51.116Z,99.52
2019-03-03T23:34:21.377Z,99.60
2019-03-03T23:36:52.843Z,104.32
2019-03-03T23:39:23.072Z,108.12
2019-03-03T23:41:53.232Z,98.05
2019-03-03T23:44:23.474Z,98.72
2019-03-03T23:46:53.642Z,95.40
2019-03-03T23:49:23.872Z,95.07
2019-03-03T23:51:54.027Z,94.42
2019-03-03T23:54:24.280Z,94.50
2019-03-03T23:56:54.453Z,93.97
2019-03-03T23:59:24.672Z,97.60
